Time;durP1;ratioP1;P1;durP2;ratioP2;P2;SDS_P1;SDS_P2;PMS_P1;PMS_P2;Temp;Humidity;BMP_temperature;BMP_pressure;BME280_temperature;BME280_humidity;BME280_pressure;Samples;Min_cycle;Max_cycle;Signal;HPM_P1;HPM_P2
2023/07/29 00:01:20;;;;;;;4.00;2.80;;;;;;;18.88;96.18;100593.69;5006207;28;20050;-79
2023/07/29 00:03:48;;;;;;;4.55;3.03;;;;;;;18.86;96.42;100584.09;4990087;28;20041;-79
2023/07/29 00:06:15;;;;;;;5.65;3.08;;;;;;;18.82;96.73;100585.28;4994905;28;20091;-77
2023/07/29 00:08:42;;;;;;;3.30;2.95;;;;;;;18.78;97.38;100589.97;4992503;28;20064;-77
2023/07/29 00:11:09;;;;;;;3.85;3.45;;;;;;;18.74;96.86;100588.47;4994466;28;20050;-77
2023/07/29 00:13:36;;;;;;;4.20;3.20;;;;;;;18.71;97.06;100584.22;5010016;28;20199;-77
2023/07/29 00:16:04;;;;;;;3.80;2.95;;;;;;;18.68;97.83;100586.22;5007376;28;20042;-77
2023/07/29 00:18:32;;;;;;;3.10;2.80;;;;;;;18.63;97.42;100570.50;5011196;28;20096;-79
2023/07/29 00:20:59;;;;;;;4.63;3.22;;;;;;;18.60;97.61;100568.91;5009924;28;20433;-76
2023/07/29 00:23:26;;;;;;;3.58;3.00;;;;;;;18.59;97.79;100567.19;4987878;28;20042;-78
2023/07/29 00:25:53;;;;;;;7.70;3.50;;;;;;;18.55;97.99;100552.38;4992594;28;20518;-79
2023/07/29 00:28:20;;;;;;;5.57;3.63;;;;;;;18.51;98.32;100550.03;4991371;28;20501;-79
2023/07/29 00:30:49;;;;;;;4.53;3.13;;;;;;;18.47;98.11;100547.56;5007611;28;20068;-80
2023/07/29 00:33:17;;;;;;;5.82;3.13;;;;;;;18.42;98.00;100543.50;5015952;28;20121;-78
2023/07/29 00:35:44;;;;;;;5.45;3.20;;;;;;;18.38;98.35;100542.84;4989378;28;20042;-79
2023/07/29 00:38:11;;;;;;;4.10;3.25;;;;;;;18.37;98.29;100545.59;5007524;28;20065;-79
2023/07/29 00:40:38;;;;;;;6.43;3.50;;;;;;;18.34;98.25;100549.34;4973333;28;20140;-79
2023/07/29 00:43:06;;;;;;;6.03;3.25;;;;;;;18.35;99.06;100539.53;5003482;28;20049;-79
2023/07/29 00:45:36;;;;;;;3.90;3.25;;;;;;;18.36;99.36;100549.25;5009024;28;20046;-80
2023/07/29 00:48:04;;;;;;;4.95;3.40;;;;;;;18.38;99.49;100542.84;4976650;28;20615;-77
2023/07/29 00:50:33;;;;;;;6.75;3.70;;;;;;;18.41;99.71;100552.44;4981381;28;20043;-77
2023/07/29 00:53:01;;;;;;;6.65;3.13;;;;;;;18.42;99.86;100556.81;5005133;28;20047;-77
2023/07/29 00:55:28;;;;;;;3.72;3.33;;;;;;;18.45;100.00;100557.47;4990360;28;20034;-76
2023/07/29 00:57:56;;;;;;;6.82;3.10;;;;;;;18.51;100.00;100561.53;5010965;28;20045;-76
2023/07/29 01:00:24;;;;;;;4.70;3.40;;;;;;;18.55;100.00;100564.84;4987674;28;20053;-76
2023/07/29 01:02:54;;;;;;;4.68;3.70;;;;;;;18.59;100.00;100567.19;4989927;28;20030;-76
2023/07/29 01:05:35;;;;;;;4.65;3.92;;;;;;;18.57;100.00;100561.09;5007546;28;20041;-76
2023/07/29 01:08:37;;;;;;;4.65;3.33;;;;;;;18.55;99.88;100551.50;4975642;28;20133;-75
2023/07/29 01:11:23;;;;;;;4.50;3.42;;;;;;;18.49;99.91;100539.44;5008889;28;20077;-75
2023/07/29 01:14:04;;;;;;;5.00;3.72;;;;;;;18.47;100.00;100533.34;5000617;28;20101;-76
2023/07/29 01:16:46;;;;;;;3.50;3.17;;;;;;;18.45;100.00;100537.94;5002119;28;20037;-76
2023/07/29 01:19:43;;;;;;;5.60;3.67;;;;;;;18.41;100.00;100523.97;4991517;28;20046;-77
2023/07/29 01:22:12;;;;;;;5.10;3.72;;;;;;;18.40;100.00;100537.38;5003467;28;20050;-77
2023/07/29 01:24:39;;;;;;;6.07;3.65;;;;;;;18.38;100.00;100547.31;5008907;28;20034;-78
2023/07/29 01:27:08;;;;;;;4.63;3.95;;;;;;;18.36;100.00;100538.59;5008089;28;20042;-78
2023/07/29 01:29:35;;;;;;;6.70;3.90;;;;;;;18.33;100.00;100536.09;5007697;28;20064;-78
2023/07/29 01:32:13;;;;;;;6.35;3.60;;;;;;;18.31;100.00;100534.41;5005078;28;20423;-78
2023/07/29 01:35:21;;;;;;;5.50;3.58;;;;;;;18.30;100.00;100539.84;4991912;28;20108;-78
2023/07/29 01:38:00;;;;;;;5.07;3.83;;;;;;;18.29;100.00;100544.31;5002437;28;20066;-78
2023/07/29 01:40:28;;;;;;;4.35;3.88;;;;;;;18.29;100.00;100543.47;4991895;28;20054;-78
2023/07/29 01:42:56;;;;;;;4.20;3.70;;;;;;;18.29;100.00;100548.81;5010120;28;20050;-77
2023/07/29 01:45:27;;;;;;;5.65;3.80;;;;;;;18.29;100.00;100546.97;5005673;28;20055;-77
2023/07/29 01:47:55;;;;;;;7.90;3.80;;;;;;;18.30;100.00;100550.53;4994002;28;20060;-77
2023/07/29 01:50:22;;;;;;;6.60;3.40;;;;;;;18.29;100.00;100538.97;4988270;28;20081;-77
2023/07/29 01:52:49;;;;;;;6.95;3.95;;;;;;;18.29;100.00;100533.63;4969487;28;20700;-77
2023/07/29 01:55:16;;;;;;;7.18;4.00;;;;;;;18.29;100.00;100538.97;4993932;28;20655;-77
2023/07/29 01:57:44;;;;;;;4.60;4.00;;;;;;;18.31;100.00;100531.72;5005062;28;20039;-77
2023/07/29 02:00:12;;;;;;;7.63;4.10;;;;;;;18.31;100.00;100530.88;5003370;28;20049;-77
2023/07/29 02:02:44;;;;;;;4.07;3.60;;;;;;;18.32;100.00;100529.91;4991274;28;20123;-77
2023/07/29 02:05:11;;;;;;;6.63;4.20;;;;;;;18.33;100.00;100539.63;5006532;28;20124;-79
2023/07/29 02:07:38;;;;;;;7.18;3.92;;;;;;;18.31;100.00;100536.22;4991634;28;20048;-78
2023/07/29 02:10:07;;;;;;;4.50;4.00;;;;;;;18.30;100.00;100527.34;5008678;28;20053;-77
2023/07/29 02:12:34;;;;;;;5.90;4.20;;;;;;;18.31;100.00;100529.06;4990620;28;20578;-77
2023/07/29 02:15:03;;;;;;;4.93;4.13;;;;;;;18.34;100.00;100530.66;4991705;28;20057;-79
2023/07/29 02:17:30;;;;;;;6.43;4.47;;;;;;;18.34;100.00;100529.81;4990540;28;20042;-78
2023/07/29 02:19:58;;;;;;;7.32;4.20;;;;;;;18.30;100.00;100532.69;5003956;28;20042;-77
2023/07/29 02:22:26;;;;;;;6.20;4.15;;;;;;;18.31;100.00;100531.72;4991575;28;20050;-77
2023/07/29 02:24:53;;;;;;;7.05;4.78;;;;;;;18.33;100.00;100525.44;4993759;28;20041;-78
2023/07/29 02:27:20;;;;;;;7.57;4.68;;;;;;;18.33;100.00;100526.28;5002715;28;20046;-77
2023/07/29 02:29:48;;;;;;;8.80;4.32;;;;;;;18.35;100.00;100523.53;4983192;28;20137;-77
2023/07/29 02:32:15;;;;;;;4.80;3.88;;;;;;;18.37;100.00;100532.25;4973198;28;20049;-78
2023/07/29 02:34:42;;;;;;;7.10;4.10;;;;;;;18.39;100.00;100535.69;4990124;28;20115;-78
2023/07/29 02:37:09;;;;;;;7.68;4.55;;;;;;;18.40;100.00;100535.59;4990774;28;20045;-78
2023/07/29 02:39:37;;;;;;;7.20;4.38;;;;;;;18.43;100.00;100535.38;4989338;28;20045;-78
2023/07/29 02:42:04;;;;;;;6.28;4.40;;;;;;;18.42;100.00;100535.47;4988021;28;20042;-76
2023/07/29 02:44:31;;;;;;;4.70;4.20;;;;;;;18.45;100.00;100541.47;5009257;28;20065;-77
2023/07/29 02:46:59;;;;;;;6.57;4.47;;;;;;;18.44;100.00;100531.75;4989278;28;20042;-78
2023/07/29 02:49:26;;;;;;;6.63;3.90;;;;;;;18.45;100.00;100533.44;4991197;28;20065;-77
2023/07/29 02:51:53;;;;;;;6.22;4.60;;;;;;;18.46;100.00;100532.50;4988016;28;20553;-78
2023/07/29 02:54:21;;;;;;;10.57;4.60;;;;;;;18.49;100.00;100536.75;4979021;28;20038;-79
2023/07/29 02:56:50;;;;;;;5.63;4.70;;;;;;;18.49;100.00;100539.44;4988666;28;20042;-79
2023/07/29 02:59:18;;;;;;;7.97;4.63;;;;;;;18.49;100.00;100536.75;4986326;28;20038;-78
2023/07/29 03:01:45;;;;;;;7.60;4.50;;;;;;;18.46;100.00;100531.66;5000582;28;20046;-79
2023/07/29 03:04:15;;;;;;;6.15;4.25;;;;;;;18.43;100.00;100530.03;5013460;28;20577;-80
2023/07/29 03:06:42;;;;;;;5.82;4.20;;;;;;;18.44;100.00;100533.56;4988772;28;20561;-78
2023/07/29 03:09:09;;;;;;;6.10;4.05;;;;;;;18.38;100.00;100532.16;4991169;28;20052;-78
2023/07/29 03:11:36;;;;;;;4.97;3.88;;;;;;;18.32;99.61;100524.56;5008283;28;20048;-80
2023/07/29 03:14:03;;;;;;;5.95;4.03;;;;;;;18.27;99.02;100532.03;4990588;28;20096;-77
2023/07/29 03:16:31;;;;;;;4.88;3.80;;;;;;;18.22;98.15;100532.34;4989091;28;20531;-79
2023/07/29 03:19:00;;;;;;;5.22;4.13;;;;;;;18.18;97.93;100540.66;4986209;28;20046;-76
2023/07/29 03:21:27;;;;;;;6.75;4.57;;;;;;;18.13;98.06;100530.31;4997243;28;20042;-76
2023/07/29 03:23:54;;;;;;;7.22;4.22;;;;;;;18.11;97.98;100532.22;4989503;28;20670;-76
2023/07/29 03:26:21;;;;;;;6.95;4.18;;;;;;;18.07;97.46;100522.69;4988325;28;20441;-76
2023/07/29 03:28:48;;;;;;;5.65;4.53;;;;;;;18.04;97.43;100514.94;5006987;28;20100;-77
2023/07/29 03:31:15;;;;;;;4.90;4.40;;;;;;;18.00;97.43;100511.63;4987625;28;20048;-76
2023/07/29 03:33:43;;;;;;;6.68;4.57;;;;;;;17.97;97.29;100517.97;4990340;28;20045;-77
2023/07/29 03:36:10;;;;;;;8.27;4.47;;;;;;;17.94;97.45;100515.50;5007819;28;20038;-77
2023/07/29 03:38:40;;;;;;;7.22;4.68;;;;;;;17.90;97.49;100506.00;4989835;28;20120;-76
2023/07/29 03:41:08;;;;;;;8.00;4.80;;;;;;;17.89;97.35;100509.59;4985331;28;20042;-77
2023/07/29 03:43:36;;;;;;;6.47;4.53;;;;;;;17.88;97.48;100515.06;4999223;28;20046;-78
2023/07/29 03:46:03;;;;;;;6.30;4.60;;;;;;;17.85;96.99;100521.47;5007126;28;20062;-77
2023/07/29 03:48:31;;;;;;;7.35;5.15;;;;;;;17.82;97.31;100519.81;4994402;28;20038;-79
2023/07/29 03:51:03;;;;;;;9.00;5.05;;;;;;;17.80;97.44;100520.88;4990753;28;20061;-78
2023/07/29 03:53:30;;;;;;;6.45;4.90;;;;;;;17.79;97.44;100527.16;4989477;28;20494;-78
2023/07/29 03:55:57;;;;;;;8.10;5.00;;;;;;;17.77;97.31;100526.41;4997701;28;20107;-78
2023/07/29 03:58:25;;;;;;;7.20;4.97;;;;;;;17.74;97.38;100527.47;5004016;28;20494;-77
2023/07/29 04:00:52;;;;;;;7.15;4.90;;;;;;;17.73;97.41;100536.44;4983432;28;20105;-77
2023/07/29 04:03:19;;;;;;;5.55;5.03;;;;;;;17.72;96.94;100534.72;4980369;28;20041;-78
2023/07/29 04:05:48;;;;;;;6.75;5.13;;;;;;;17.73;97.43;100543.59;4989233;28;20046;-77
2023/07/29 04:08:15;;;;;;;7.15;5.10;;;;;;;17.73;97.26;100539.09;4988181;28;20042;-78
2023/07/29 04:10:42;;;;;;;7.22;5.00;;;;;;;17.70;97.29;100540.16;4992333;28;20086;-77
2023/07/29 04:13:09;;;;;;;8.38;4.97;;;;;;;17.68;97.28;100542.06;4976324;28;20425;-78
2023/07/29 04:15:37;;;;;;;7.93;5.00;;;;;;;17.68;97.16;100546.53;4992967;28;20054;-79
2023/07/29 04:18:04;;;;;;;5.07;4.57;;;;;;;17.67;97.28;100545.69;5010033;28;20052;-79
2023/07/29 04:20:32;;;;;;;9.18;5.20;;;;;;;17.62;96.36;100536.25;4992617;28;20069;-78
2023/07/29 04:22:59;;;;;;;7.05;4.75;;;;;;;17.60;96.67;100539.03;5007972;28;20387;-78
2023/07/29 04:25:28;;;;;;;6.00;4.80;;;;;;;17.58;96.40;100532.09;5010925;28;20500;-78
2023/07/29 04:27:57;;;;;;;7.68;5.00;;;;;;;17.53;96.15;100519.91;4994110;28;20046;-78
2023/07/29 04:30:24;;;;;;;7.10;5.00;;;;;;;17.47;96.40;100517.66;4991240;28;20057;-78
2023/07/29 04:32:52;;;;;;;6.35;4.95;;;;;;;17.46;96.34;100505.28;4992534;28;20112;-78
2023/07/29 04:35:19;;;;;;;9.27;4.82;;;;;;;17.44;96.49;100501.88;4990462;28;20050;-80
2023/07/29 04:37:48;;;;;;;5.47;4.57;;;;;;;17.44;96.45;100515.19;4987106;28;20053;-81
2023/07/29 04:40:15;;;;;;;7.30;4.60;;;;;;;17.45;96.39;100500.91;4991611;28;20045;-80
2023/07/29 04:42:42;;;;;;;6.95;4.35;;;;;;;17.48;95.72;100508.72;4993558;28;20050;-79
2023/07/29 04:45:10;;;;;;;7.35;5.10;;;;;;;17.50;95.92;100513.94;5010563;28;20050;-77
2023/07/29 04:47:37;;;;;;;7.15;5.20;;;;;;;17.55;95.63;100525.13;5008873;28;20074;-76
2023/07/29 04:50:06;;;;;;;6.60;5.00;;;;;;;17.56;95.09;100534.84;4991288;28;20682;-77
2023/07/29 04:52:33;;;;;;;7.88;4.97;;;;;;;17.57;94.91;100554.38;4992963;28;20596;-77
2023/07/29 04:55:00;;;;;;;10.02;4.97;;;;;;;17.58;94.83;100569.41;5008830;28;20034;-77
2023/07/29 04:57:27;;;;;;;5.70;4.50;;;;;;;17.57;94.33;100570.38;4991992;28;20053;-77
2023/07/29 04:59:54;;;;;;;5.00;4.13;;;;;;;17.54;94.06;100569.59;5009269;28;20564;-77
2023/07/29 05:02:22;;;;;;;6.15;4.35;;;;;;;17.55;93.71;100573.13;4991307;28;20057;-77
2023/07/29 05:04:49;;;;;;;6.72;4.30;;;;;;;17.56;92.89;100566.84;5007846;28;20125;-77
2023/07/29 05:07:17;;;;;;;5.28;3.50;;;;;;;17.57;92.58;100563.22;5010650;28;20092;-78
2023/07/29 05:09:44;;;;;;;6.15;3.88;;;;;;;17.61;92.65;100561.19;4991094;28;20070;-78
2023/07/29 05:12:11;;;;;;;6.53;3.60;;;;;;;17.66;92.27;100569.78;4976076;28;20145;-76
2023/07/29 05:14:38;;;;;;;5.40;3.80;;;;;;;17.68;92.21;100567.88;5009921;28;20096;-77
2023/07/29 05:17:06;;;;;;;5.57;4.15;;;;;;;17.70;91.70;100566.81;4991952;28;20046;-77
2023/07/29 05:19:33;;;;;;;6.65;3.85;;;;;;;17.72;91.59;100557.88;5008704;28;20045;-77
2023/07/29 05:22:00;;;;;;;5.15;3.88;;;;;;;17.78;91.80;100555.66;5006846;28;20041;-76
2023/07/29 05:24:27;;;;;;;7.53;3.40;;;;;;;17.84;91.26;100555.25;4975846;28;20124;-76
2023/07/29 05:26:54;;;;;;;5.90;3.55;;;;;;;17.94;90.39;100560.84;5007307;28;20510;-74
2023/07/29 05:29:22;;;;;;;6.85;3.40;;;;;;;17.95;90.54;100559.88;4986201;28;20046;-72
2023/07/29 05:31:51;;;;;;;4.75;3.42;;;;;;;17.92;90.63;100570.75;4987233;28;20658;-77
2023/07/29 05:34:19;;;;;;;5.68;3.58;;;;;;;17.90;90.44;100577.97;4988814;28;20118;-76
2023/07/29 05:36:46;;;;;;;5.00;3.20;;;;;;;17.89;90.18;100586.94;4990073;28;20750;-77
2023/07/29 05:39:13;;;;;;;5.43;3.35;;;;;;;17.89;90.43;100592.28;4989841;28;20056;-75
2023/07/29 05:41:40;;;;;;;5.38;3.03;;;;;;;17.90;90.33;100587.81;5001703;28;20678;-72
2023/07/29 05:44:08;;;;;;;4.30;3.33;;;;;;;17.91;90.28;100597.50;4967641;28;20056;-78
2023/07/29 05:46:37;;;;;;;4.15;3.70;;;;;;;17.90;90.21;100604.66;5000847;28;20057;-77
2023/07/29 05:49:04;;;;;;;7.57;3.47;;;;;;;17.93;90.13;100600.91;4976593;28;20077;-77
2023/07/29 05:51:35;;;;;;;7.07;3.25;;;;;;;17.94;90.15;100600.84;5002308;28;20066;-77
2023/07/29 05:54:03;;;;;;;8.23;3.45;;;;;;;17.94;90.42;100597.31;5004083;28;20050;-77
2023/07/29 05:56:31;;;;;;;5.20;3.50;;;;;;;17.97;90.02;100597.16;4989347;28;20050;-77
2023/07/29 05:58:58;;;;;;;6.38;3.53;;;;;;;17.94;89.77;100594.63;4989429;28;20038;-78
2023/07/29 06:01:26;;;;;;;4.00;3.38;;;;;;;17.94;89.74;100592.84;4988683;28;20426;-80
2023/07/29 06:03:53;;;;;;;6.43;3.50;;;;;;;17.95;89.65;100591.88;4987819;28;20458;-77
2023/07/29 06:06:20;;;;;;;3.60;3.25;;;;;;;17.99;89.82;100592.56;4986154;28;20043;-78
2023/07/29 06:08:47;;;;;;;4.45;3.20;;;;;;;18.05;89.60;100597.50;4966511;28;20391;-77
2023/07/29 06:11:14;;;;;;;4.75;3.47;;;;;;;18.19;89.69;100585.91;4983920;28;20133;-77
2023/07/29 06:13:42;;;;;;;6.43;3.45;;;;;;;18.36;88.96;100591.94;4983704;28;20089;-79
2023/07/29 06:16:11;;;;;;;4.15;3.50;;;;;;;18.59;88.15;100593.06;4986886;28;20129;-75
2023/07/29 06:18:42;;;;;;;4.00;3.13;;;;;;;18.87;87.29;100585.81;4986606;28;20509;-74
2023/07/29 06:21:12;;;;;;;4.22;3.25;;;;;;;19.12;86.50;100590.31;4987031;28;20133;-74
2023/07/29 06:23:39;;;;;;;4.53;3.22;;;;;;;19.50;85.33;100593.91;4979396;28;20040;-71
2023/07/29 06:26:06;;;;;;;5.55;3.30;;;;;;;19.73;83.99;100584.22;4997144;28;20042;-71
2023/07/29 06:28:34;;;;;;;4.32;2.70;;;;;;;19.89;80.04;100591.16;4979342;28;20045;-73
2023/07/29 06:31:01;;;;;;;5.18;2.72;;;;;;;19.85;80.24;100594.03;4984914;28;20044;-72
2023/07/29 06:33:28;;;;;;;7.05;3.30;;;;;;;19.79;81.03;100583.75;4985958;28;20042;-71
2023/07/29 06:35:55;;;;;;;3.58;2.85;;;;;;;19.95;81.18;100588.00;4986239;28;20133;-71
2023/07/29 06:38:23;;;;;;;4.13;2.92;;;;;;;20.11;79.88;100577.88;4988165;28;20038;-71
2023/07/29 06:40:50;;;;;;;3.55;2.60;;;;;;;20.24;79.41;100583.19;4990602;28;20126;-71
2023/07/29 06:43:18;;;;;;;5.03;2.80;;;;;;;20.32;79.23;100586.13;4980634;28;20050;-71
2023/07/29 06:45:45;;;;;;;3.10;2.35;;;;;;;20.38;79.28;100575.91;4996730;28;20133;-71
2023/07/29 06:48:12;;;;;;;3.97;2.40;;;;;;;20.38;79.55;100583.94;5010643;28;20144;-71
2023/07/29 06:50:39;;;;;;;6.32;2.78;;;;;;;20.37;78.90;100584.91;5002145;28;20038;-71
2023/07/29 06:53:10;;;;;;;5.05;2.35;;;;;;;20.34;78.30;100596.69;4987661;28;20137;-71
2023/07/29 06:55:37;;;;;;;3.85;2.60;;;;;;;20.30;78.74;100595.22;5008226;28;20067;-71
2023/07/29 06:58:04;;;;;;;6.40;2.50;;;;;;;20.31;78.65;100588.91;5005627;28;20045;-71
2023/07/29 07:00:31;;;;;;;3.38;2.35;;;;;;;20.35;78.03;100597.56;4998172;28;20092;-71
2023/07/29 07:02:59;;;;;;;4.47;2.38;;;;;;;20.37;76.37;100592.94;4996512;28;20085;-71
2023/07/29 07:05:26;;;;;;;4.00;2.60;;;;;;;20.31;76.98;100595.13;5004122;28;20041;-76
2023/07/29 07:07:53;;;;;;;2.97;2.30;;;;;;;20.25;77.63;100602.75;5004769;28;20128;-71
2023/07/29 07:10:20;;;;;;;4.93;2.80;;;;;;;20.27;77.35;100601.66;4999953;28;20069;-71
2023/07/29 07:12:48;;;;;;;3.78;2.85;;;;;;;20.27;76.67;100596.31;5005036;28;20046;-71
2023/07/29 07:15:15;;;;;;;3.08;2.10;;;;;;;20.20;77.36;100589.72;4977557;28;20592;-71
2023/07/29 07:17:42;;;;;;;4.63;2.95;;;;;;;20.15;77.38;100597.22;5001045;28;20244;-72
2023/07/29 07:20:10;;;;;;;3.50;2.63;;;;;;;20.09;77.66;100595.00;5003415;28;20319;-72
2023/07/29 07:22:37;;;;;;;4.70;2.83;;;;;;;20.04;78.01;100594.53;4984065;28;20061;-71
2023/07/29 07:25:05;;;;;;;4.88;3.20;;;;;;;20.05;78.19;100593.53;4984645;28;20501;-72
2023/07/29 07:27:36;;;;;;;5.68;3.45;;;;;;;20.06;77.55;100600.59;5001693;28;20053;-71
2023/07/29 07:30:04;;;;;;;3.28;2.92;;;;;;;20.16;77.73;100594.44;5002734;28;20127;-71
2023/07/29 07:32:31;;;;;;;5.63;3.70;;;;;;;20.31;77.16;100603.16;4993334;28;20034;-71
2023/07/29 07:34:58;;;;;;;5.15;3.40;;;;;;;20.29;77.18;100607.75;4996320;28;20464;-71
2023/07/29 07:37:25;;;;;;;6.40;3.65;;;;;;;20.29;77.80;100609.59;4984764;28;20042;-71
2023/07/29 07:39:52;;;;;;;4.82;3.45;;;;;;;20.38;77.78;100614.25;5003411;28;20135;-71
2023/07/29 07:42:20;;;;;;;7.68;3.55;;;;;;;20.52;78.10;100606.97;4989753;28;20069;-72
2023/07/29 07:44:47;;;;;;;4.20;2.80;;;;;;;20.63;77.49;100621.28;5008349;28;20080;-71
2023/07/29 07:47:14;;;;;;;3.85;2.80;;;;;;;20.69;77.53;100611.03;4998636;28;20042;-72
2023/07/29 07:49:43;;;;;;;4.22;3.15;;;;;;;20.72;76.92;100617.03;4992543;28;20141;-71
2023/07/29 07:52:10;;;;;;;5.38;3.28;;;;;;;20.69;77.01;100613.72;5007905;28;20053;-71
2023/07/29 07:54:37;;;;;;;4.63;2.95;;;;;;;20.62;76.82;100618.69;4991827;28;20671;-71
2023/07/29 07:57:05;;;;;;;4.15;2.85;;;;;;;20.58;76.32;100620.75;5009793;28;20572;-71
2023/07/29 07:59:32;;;;;;;3.70;2.65;;;;;;;20.68;76.87;100618.25;5001158;28;20525;-71
2023/07/29 08:01:59;;;;;;;5.90;2.97;;;;;;;20.80;76.41;100616.47;5004905;28;20118;-71
2023/07/29 08:04:26;;;;;;;3.42;2.38;;;;;;;20.89;76.29;100618.44;4994310;28;20759;-71
2023/07/29 08:06:53;;;;;;;3.53;2.40;;;;;;;21.07;76.05;100618.84;5002987;28;20042;-76
2023/07/29 08:09:21;;;;;;;4.68;2.40;;;;;;;21.24;75.92;100617.50;4997650;28;20034;-76
2023/07/29 08:11:48;;;;;;;2.50;2.03;;;;;;;21.33;74.41;100621.28;5010772;28;20341;-76
2023/07/29 08:14:15;;;;;;;2.90;2.00;;;;;;;21.27;73.32;100621.78;5007366;28;20080;-77
2023/07/29 08:16:42;;;;;;;3.63;2.20;;;;;;;21.14;74.21;100619.22;4977269;28;20038;-76
2023/07/29 08:19:09;;;;;;;3.40;2.38;;;;;;;21.24;74.58;100624.69;5011515;28;20041;-77
2023/07/29 08:21:36;;;;;;;3.15;1.75;;;;;;;21.27;74.63;100619.09;5006277;28;20046;-76
2023/07/29 08:24:04;;;;;;;2.88;1.85;;;;;;;21.34;73.41;100614.94;5009364;28;20057;-76
2023/07/29 08:26:31;;;;;;;3.78;1.98;;;;;;;21.42;73.27;100620.53;5011205;28;20124;-76
2023/07/29 08:28:58;;;;;;;3.10;1.90;;;;;;;21.51;72.44;100620.78;5013470;28;20147;-76
2023/07/29 08:31:25;;;;;;;2.25;1.50;;;;;;;21.51;72.50;100618.94;5012294;28;20052;-77
2023/07/29 08:33:53;;;;;;;3.25;1.50;;;;;;;21.51;73.15;100618.13;5011219;28;20046;-77
2023/07/29 08:36:21;;;;;;;5.40;1.73;;;;;;;21.48;74.08;100618.34;5005732;28;20592;-76
2023/07/29 08:38:48;;;;;;;3.83;1.77;;;;;;;21.52;72.64;100631.38;5023995;28;20133;-76
2023/07/29 08:41:53;;;;;;;3.45;1.88;;;;;;;21.55;72.08;100627.59;5010159;28;20038;-76
2023/07/29 08:44:30;;;;;;;4.28;1.60;;;;;;;21.65;70.51;100633.13;4982088;28;20092;-76
2023/07/29 08:46:59;;;;;;;3.53;1.85;;;;;;;21.86;70.50;100647.50;5009403;28;20567;-77
2023/07/29 08:49:28;;;;;;;3.00;1.67;;;;;;;21.99;70.87;100646.47;5007329;28;20049;-77
2023/07/29 08:51:57;;;;;;;3.08;1.90;;;;;;;22.05;70.92;100642.44;5001272;28;20117;-77
2023/07/29 08:54:25;;;;;;;3.05;1.45;;;;;;;22.08;70.82;100647.56;5000395;28;20602;-76
2023/07/29 08:56:52;;;;;;;2.63;1.48;;;;;;;21.97;70.52;100654.66;5000570;28;20103;-77
2023/07/29 08:59:21;;;;;;;2.22;1.50;;;;;;;21.93;69.44;100639.75;4995135;28;20048;-77
2023/07/29 09:01:49;;;;;;;5.55;1.58;;;;;;;22.01;69.69;100655.25;5002693;28;20723;-76
2023/07/29 09:04:17;;;;;;;3.10;1.80;;;;;;;22.15;69.98;100640.69;4989005;28;20046;-76
2023/07/29 09:06:47;;;;;;;2.15;1.60;;;;;;;22.39;68.92;100639.63;4984992;28;20049;-76
2023/07/29 09:09:14;;;;;;;2.65;1.45;;;;;;;22.54;67.37;100635.69;5006013;28;20129;-76
2023/07/29 09:11:41;;;;;;;1.48;1.30;;;;;;;22.64;66.84;100636.59;4996589;28;20121;-77
2023/07/29 09:14:09;;;;;;;3.00;1.50;;;;;;;22.88;66.21;100635.50;5008900;28;20052;-76
2023/07/29 09:16:38;;;;;;;2.75;1.33;;;;;;;23.14;63.87;100629.72;5006167;28;20049;-77
2023/07/29 09:19:05;;;;;;;1.67;1.40;;;;;;;23.20;63.82;100629.22;5008106;28;20100;-76
2023/07/29 09:21:33;;;;;;;2.60;1.40;;;;;;;23.15;64.75;100625.19;4996809;28;20454;-76
2023/07/29 09:24:05;;;;;;;3.47;1.40;;;;;;;23.12;65.20;100637.06;5002827;28;20125;-78
2023/07/29 09:26:32;;;;;;;2.75;1.25;;;;;;;23.22;65.56;100624.56;4993851;28;20046;-76
2023/07/29 09:29:00;;;;;;;2.13;1.10;;;;;;;23.26;63.62;100620.59;4974801;28;20038;-76
2023/07/29 09:31:29;;;;;;;1.48;1.02;;;;;;;23.37;63.66;100610.72;5010086;28;20053;-76
2023/07/29 09:33:59;;;;;;;2.85;1.25;;;;;;;23.49;64.13;100608.81;5009413;28;20049;-76
2023/07/29 09:36:27;;;;;;;2.42;1.30;;;;;;;23.67;63.77;100606.28;5020935;28;20104;-77
2023/07/29 09:38:59;;;;;;;2.58;1.27;;;;;;;23.93;62.99;100608.50;4997849;28;20042;-76
2023/07/29 09:41:30;;;;;;;2.40;1.10;;;;;;;24.03;62.82;100591.38;5001578;28;20046;-77
2023/07/29 09:44:04;;;;;;;1.50;1.08;;;;;;;24.24;61.76;100601.16;5006528;28;20064;-77
2023/07/29 09:46:36;;;;;;;1.52;1.02;;;;;;;24.31;61.29;100602.31;4995925;28;20074;-77
2023/07/29 09:49:06;;;;;;;2.67;1.25;;;;;;;24.22;61.04;100594.22;4996483;28;20057;-75
2023/07/29 09:51:39;;;;;;;1.20;0.93;;;;;;;24.19;61.09;100598.91;5003026;28;20049;-77
2023/07/29 09:54:12;;;;;;;2.55;0.90;;;;;;;24.33;61.12;100586.00;4978474;28;20060;-77
2023/07/29 09:56:44;;;;;;;2.10;0.95;;;;;;;24.49;60.02;100590.81;4990869;28;20039;-77
2023/07/29 09:59:14;;;;;;;1.45;1.00;;;;;;;24.69;59.36;100594.34;5000796;28;20049;-77
2023/07/29 10:01:42;;;;;;;1.20;0.80;;;;;;;24.99;58.62;100589.72;5008137;28;20073;-77
2023/07/29 10:04:10;;;;;;;3.08;0.93;;;;;;;25.10;58.55;100594.09;5008097;28;20069;-77
2023/07/29 10:06:42;;;;;;;2.20;0.90;;;;;;;25.12;57.29;100605.59;5007053;28;20091;-77
2023/07/29 10:09:12;;;;;;;1.83;0.70;;;;;;;25.06;57.60;100606.19;4977529;28;20041;-77
2023/07/29 10:11:41;;;;;;;4.03;1.25;;;;;;;24.94;56.52;100602.81;5006251;28;20565;-77
2023/07/29 10:14:11;;;;;;;2.10;0.95;;;;;;;24.90;55.97;100607.66;4989156;28;20561;-77
2023/07/29 10:16:41;;;;;;;1.63;0.80;;;;;;;24.76;57.20;100605.41;4988932;28;20049;-77
2023/07/29 10:19:09;;;;;;;1.30;0.90;;;;;;;24.64;57.91;100613.63;4995386;28;20557;-77
2023/07/29 10:21:40;;;;;;;1.88;0.90;;;;;;;24.53;57.63;100604.84;5001360;28;20042;-77
2023/07/29 10:24:18;;;;;;;1.20;0.80;;;;;;;24.38;57.98;100613.34;4986632;28;20041;-77
2023/07/29 10:26:49;;;;;;;4.43;0.80;;;;;;;24.18;57.02;100617.91;5006508;28;20048;-77
2023/07/29 10:29:21;;;;;;;2.47;0.80;;;;;;;24.00;58.36;100617.72;5006297;28;20037;-77
2023/07/29 10:31:53;;;;;;;1.55;0.90;;;;;;;23.94;58.95;100612.88;4990314;28;20141;-77
2023/07/29 10:34:22;;;;;;;2.15;0.90;;;;;;;23.88;59.21;100616.97;4999390;28;20121;-77
2023/07/29 10:36:51;;;;;;;7.93;1.15;;;;;;;23.94;59.41;100612.88;4994742;28;20269;-77
2023/07/29 10:39:18;;;;;;;1.20;0.80;;;;;;;24.06;59.56;100609.13;5004534;28;20042;-77
2023/07/29 10:41:56;;;;;;;1.75;0.77;;;;;;;24.32;59.09;100608.53;5001853;28;20424;-77
2023/07/29 10:44:42;;;;;;;1.95;0.88;;;;;;;24.64;57.67;100593.91;4981111;28;20038;-77
2023/07/29 10:47:17;;;;;;;1.52;0.90;;;;;;;24.87;56.68;100593.63;5003650;28;20121;-77
2023/07/29 10:49:50;;;;;;;1.10;0.77;;;;;;;24.94;56.85;100587.47;4982327;28;20053;-78
2023/07/29 10:52:34;;;;;;;1.88;1.00;;;;;;;24.85;57.22;100596.44;5002531;28;20461;-78
2023/07/29 10:55:03;;;;;;;1.88;1.00;;;;;;;24.85;57.57;100582.97;5000547;28;20044;-76
2023/07/29 10:57:34;;;;;;;1.40;0.90;;;;;;;24.87;58.09;100583.69;4991934;28;20129;-76
2023/07/29 11:00:04;;;;;;;1.90;1.17;;;;;;;24.84;57.89;100592.03;4987252;28;20092;-77
2023/07/29 11:02:36;;;;;;;1.83;0.95;;;;;;;24.86;57.29;100598.16;4997708;28;20046;-77
2023/07/29 11:05:22;;;;;;;1.48;1.10;;;;;;;25.03;56.10;100585.75;4996158;28;20050;-77
2023/07/29 11:07:49;;;;;;;1.60;1.10;;;;;;;25.19;56.39;100592.34;4988425;28;20041;-77
2023/07/29 11:10:17;;;;;;;1.73;1.10;;;;;;;25.35;56.74;100592.59;4998503;28;20137;-78
2023/07/29 11:12:48;;;;;;;2.10;1.10;;;;;;;25.45;56.34;100589.84;5009532;28;20485;-77
2023/07/29 11:15:21;;;;;;;1.92;1.08;;;;;;;25.56;56.12;100592.34;4975554;28;21223;-77
2023/07/29 11:18:00;;;;;;;3.15;1.00;;;;;;;25.60;56.36;100587.50;4993113;28;20493;-77
2023/07/29 11:20:31;;;;;;;1.73;0.90;;;;;;;25.72;55.07;100590.84;4995756;28;20038;-77
2023/07/29 11:23:03;;;;;;;4.40;1.10;;;;;;;25.74;54.04;100600.50;5005305;28;20041;-77
2023/07/29 11:25:33;;;;;;;2.25;1.10;;;;;;;25.69;53.72;100592.00;5002910;28;20533;-77
2023/07/29 11:28:01;;;;;;;2.20;1.00;;;;;;;25.69;53.66;100589.28;5001437;28;20045;-77
2023/07/29 11:30:33;;;;;;;1.92;0.95;;;;;;;25.68;54.20;100590.31;4998983;28;20054;-77
2023/07/29 11:33:01;;;;;;;1.65;0.95;;;;;;;25.64;53.43;100586.22;4993691;28;20211;-77